首页
METAR-TAF:

METAR-TAF

机场 :

Leconfield, 英格兰

纬度: 53-52-37N, 经度: 0-26-15W, 海拔: 7米

当前天气观测

该预报发布于1小时和14分钟前的12:50 UTC
风速15节,风向西转西北
温度 7°C
湿度 76%
气压 1010 hPa
能见度10公里或以上

METAR: EGXV 231250Z AUTO 30015KT 9999 SCT024/// 07/03 Q1010 RERA

时间: 14:04 (14:04 UTC)


TAF: 丢失

超过4000个机场的气象观测和天气预报(METAR&TAF报告)。

可查询的气象台以黄色和红色小点在地图上表示。

将鼠标移到小点上方,可查看气象台名称。

然后点击查看天气观测和预报。

如需切换地图:点击带黑十字的绿色按钮放大地图;点击带横线的绿色按钮缩小地图;或者点击绿色箭头查看邻近地区的地图。


METAR-TAF: